sensor_id;sensor_type;location;lat;lon;timestamp;P1;durP1;ratioP1;P2;durP2;ratioP2
19448;SDS011;9863;49.404;8.246;2023-02-26T00:01:35;355.13;;;71.80;;
19448;SDS011;9863;49.404;8.246;2023-02-26T00:04:05;350.33;;;71.00;;
19448;SDS011;9863;49.404;8.246;2023-02-26T00:06:34;331.93;;;61.73;;
19448;SDS011;9863;49.404;8.246;2023-02-26T00:09:04;366.07;;;72.37;;
19448;SDS011;9863;49.404;8.246;2023-02-26T00:11:32;356.57;;;72.57;;
19448;SDS011;9863;49.404;8.246;2023-02-26T00:13:59;342.83;;;67.30;;
19448;SDS011;9863;49.404;8.246;2023-02-26T00:18:56;363.03;;;73.80;;
19448;SDS011;9863;49.404;8.246;2023-02-26T00:21:27;345.13;;;70.63;;
19448;SDS011;9863;49.404;8.246;2023-02-26T00:23:55;342.33;;;63.97;;
19448;SDS011;9863;49.404;8.246;2023-02-26T00:26:24;362.57;;;73.40;;
19448;SDS011;9863;49.404;8.246;2023-02-26T00:28:53;338.40;;;63.97;;
19448;SDS011;9863;49.404;8.246;2023-02-26T00:31:21;327.70;;;62.70;;
19448;SDS011;9863;49.404;8.246;2023-02-26T00:33:53;361.77;;;75.20;;
19448;SDS011;9863;49.404;8.246;2023-02-26T00:39:14;328.70;;;63.07;;
19448;SDS011;9863;49.404;8.246;2023-02-26T00:41:47;395.57;;;86.63;;
19448;SDS011;9863;49.404;8.246;2023-02-26T00:44:15;339.83;;;66.90;;
19448;SDS011;9863;49.404;8.246;2023-02-26T00:49:45;394.63;;;86.23;;
19448;SDS011;9863;49.404;8.246;2023-02-26T00:52:45;359.33;;;70.93;;
19448;SDS011;9863;49.404;8.246;2023-02-26T00:55:18;371.17;;;77.53;;
19448;SDS011;9863;49.404;8.246;2023-02-26T00:57:45;360.40;;;74.33;;
19448;SDS011;9863;49.404;8.246;2023-02-26T01:00:12;404.33;;;88.40;;
19448;SDS011;9863;49.404;8.246;2023-02-26T01:02:40;344.23;;;68.67;;
19448;SDS011;9863;49.404;8.246;2023-02-26T01:05:09;345.63;;;68.87;;
19448;SDS011;9863;49.404;8.246;2023-02-26T01:07:46;355.77;;;70.73;;
19448;SDS011;9863;49.404;8.246;2023-02-26T01:10:23;351.30;;;72.77;;
19448;SDS011;9863;49.404;8.246;2023-02-26T01:12:51;352.80;;;70.57;;
19448;SDS011;9863;49.404;8.246;2023-02-26T01:15:18;396.03;;;83.13;;
19448;SDS011;9863;49.404;8.246;2023-02-26T01:17:50;358.57;;;71.53;;
19448;SDS011;9863;49.404;8.246;2023-02-26T01:20:43;343.87;;;70.33;;
19448;SDS011;9863;49.404;8.246;2023-02-26T01:23:33;363.53;;;74.40;;
19448;SDS011;9863;49.404;8.246;2023-02-26T01:26:09;383.80;;;79.43;;
19448;SDS011;9863;49.404;8.246;2023-02-26T01:28:45;354.97;;;68.70;;
19448;SDS011;9863;49.404;8.246;2023-02-26T01:31:32;364.17;;;75.60;;
19448;SDS011;9863;49.404;8.246;2023-02-26T01:37:13;397.60;;;83.47;;
19448;SDS011;9863;49.404;8.246;2023-02-26T01:43:19;351.97;;;71.63;;
19448;SDS011;9863;49.404;8.246;2023-02-26T01:46:05;354.50;;;71.40;;
19448;SDS011;9863;49.404;8.246;2023-02-26T01:49:00;366.13;;;72.90;;
19448;SDS011;9863;49.404;8.246;2023-02-26T01:54:20;357.63;;;68.90;;
19448;SDS011;9863;49.404;8.246;2023-02-26T01:57:00;320.57;;;61.00;;
19448;SDS011;9863;49.404;8.246;2023-02-26T01:59:41;341.70;;;65.47;;
19448;SDS011;9863;49.404;8.246;2023-02-26T02:02:12;366.73;;;73.63;;
19448;SDS011;9863;49.404;8.246;2023-02-26T02:04:48;329.77;;;62.20;;
19448;SDS011;9863;49.404;8.246;2023-02-26T02:07:17;356.73;;;70.77;;
19448;SDS011;9863;49.404;8.246;2023-02-26T02:09:44;357.90;;;69.20;;
19448;SDS011;9863;49.404;8.246;2023-02-26T02:15:20;398.40;;;84.07;;
19448;SDS011;9863;49.404;8.246;2023-02-26T02:21:33;340.07;;;66.23;;
19448;SDS011;9863;49.404;8.246;2023-02-26T02:24:14;344.13;;;66.97;;
19448;SDS011;9863;49.404;8.246;2023-02-26T02:30:47;356.93;;;70.93;;
19448;SDS011;9863;49.404;8.246;2023-02-26T02:33:21;342.77;;;65.40;;
19448;SDS011;9863;49.404;8.246;2023-02-26T02:36:01;354.90;;;69.30;;
19448;SDS011;9863;49.404;8.246;2023-02-26T02:38:35;327.70;;;62.10;;
19448;SDS011;9863;49.404;8.246;2023-02-26T02:41:16;352.63;;;70.27;;
19448;SDS011;9863;49.404;8.246;2023-02-26T02:43:51;334.90;;;63.73;;
19448;SDS011;9863;49.404;8.246;2023-02-26T02:46:22;360.30;;;73.00;;
19448;SDS011;9863;49.404;8.246;2023-02-26T02:49:01;338.03;;;64.97;;
19448;SDS011;9863;49.404;8.246;2023-02-26T02:51:33;339.03;;;66.27;;
19448;SDS011;9863;49.404;8.246;2023-02-26T02:54:17;421.97;;;93.83;;
19448;SDS011;9863;49.404;8.246;2023-02-26T02:57:08;344.27;;;67.27;;
19448;SDS011;9863;49.404;8.246;2023-02-26T02:59:48;347.50;;;67.87;;
19448;SDS011;9863;49.404;8.246;2023-02-26T03:04:58;354.23;;;69.43;;
19448;SDS011;9863;49.404;8.246;2023-02-26T03:07:25;351.80;;;73.07;;
19448;SDS011;9863;49.404;8.246;2023-02-26T03:09:56;342.83;;;67.20;;
19448;SDS011;9863;49.404;8.246;2023-02-26T03:12:25;342.20;;;66.23;;
19448;SDS011;9863;49.404;8.246;2023-02-26T03:14:56;351.13;;;68.80;;
19448;SDS011;9863;49.404;8.246;2023-02-26T03:17:26;335.13;;;63.37;;
19448;SDS011;9863;49.404;8.246;2023-02-26T03:28:56;397.57;;;83.67;;
19448;SDS011;9863;49.404;8.246;2023-02-26T03:31:56;351.00;;;68.27;;
19448;SDS011;9863;49.404;8.246;2023-02-26T03:34:44;331.60;;;64.30;;
19448;SDS011;9863;49.404;8.246;2023-02-26T03:39:51;351.50;;;72.63;;
19448;SDS011;9863;49.404;8.246;2023-02-26T03:42:35;339.30;;;65.37;;
19448;SDS011;9863;49.404;8.246;2023-02-26T03:45:17;349.60;;;67.97;;
19448;SDS011;9863;49.404;8.246;2023-02-26T03:47:51;332.47;;;63.13;;
19448;SDS011;9863;49.404;8.246;2023-02-26T03:50:25;353.63;;;69.83;;
19448;SDS011;9863;49.404;8.246;2023-02-26T03:53:04;337.90;;;64.60;;
19448;SDS011;9863;49.404;8.246;2023-02-26T03:55:38;338.50;;;66.67;;
19448;SDS011;9863;49.404;8.246;2023-02-26T03:58:15;366.63;;;76.13;;
19448;SDS011;9863;49.404;8.246;2023-02-26T04:00:43;342.27;;;66.90;;
19448;SDS011;9863;49.404;8.246;2023-02-26T04:03:14;338.67;;;64.83;;
19448;SDS011;9863;49.404;8.246;2023-02-26T04:05:55;340.13;;;67.27;;
19448;SDS011;9863;49.404;8.246;2023-02-26T04:08:23;342.93;;;68.77;;
19448;SDS011;9863;49.404;8.246;2023-02-26T04:10:52;336.20;;;63.60;;
19448;SDS011;9863;49.404;8.246;2023-02-26T04:13:45;342.10;;;66.93;;
19448;SDS011;9863;49.404;8.246;2023-02-26T04:16:13;309.13;;;57.40;;
19448;SDS011;9863;49.404;8.246;2023-02-26T04:18:40;336.97;;;64.00;;
19448;SDS011;9863;49.404;8.246;2023-02-26T04:21:15;337.47;;;64.70;;
19448;SDS011;9863;49.404;8.246;2023-02-26T04:23:46;326.10;;;62.10;;
19448;SDS011;9863;49.404;8.246;2023-02-26T04:26:13;381.53;;;81.07;;
19448;SDS011;9863;49.404;8.246;2023-02-26T04:28:40;336.00;;;66.43;;
19448;SDS011;9863;49.404;8.246;2023-02-26T04:31:08;327.47;;;61.23;;
19448;SDS011;9863;49.404;8.246;2023-02-26T04:33:38;335.60;;;65.53;;
19448;SDS011;9863;49.404;8.246;2023-02-26T04:36:05;372.30;;;75.20;;
19448;SDS011;9863;49.404;8.246;2023-02-26T04:38:32;324.53;;;60.97;;
19448;SDS011;9863;49.404;8.246;2023-02-26T04:40:59;344.50;;;68.73;;
19448;SDS011;9863;49.404;8.246;2023-02-26T04:43:26;332.83;;;63.83;;
19448;SDS011;9863;49.404;8.246;2023-02-26T04:45:53;382.47;;;79.03;;
19448;SDS011;9863;49.404;8.246;2023-02-26T04:48:21;353.40;;;70.53;;
19448;SDS011;9863;49.404;8.246;2023-02-26T04:50:48;317.30;;;59.13;;
19448;SDS011;9863;49.404;8.246;2023-02-26T04:53:15;346.83;;;67.33;;
19448;SDS011;9863;49.404;8.246;2023-02-26T04:55:42;340.93;;;66.30;;
19448;SDS011;9863;49.404;8.246;2023-02-26T04:58:09;355.10;;;71.97;;
19448;SDS011;9863;49.404;8.246;2023-02-26T05:00:36;333.57;;;63.47;;
19448;SDS011;9863;49.404;8.246;2023-02-26T05:03:03;354.40;;;69.60;;
19448;SDS011;9863;49.404;8.246;2023-02-26T05:05:30;347.87;;;69.53;;
19448;SDS011;9863;49.404;8.246;2023-02-26T05:07:57;330.97;;;61.80;;
19448;SDS011;9863;49.404;8.246;2023-02-26T05:10:24;334.97;;;63.47;;
19448;SDS011;9863;49.404;8.246;2023-02-26T05:12:51;334.60;;;64.77;;
19448;SDS011;9863;49.404;8.246;2023-02-26T05:15:19;368.37;;;75.70;;
19448;SDS011;9863;49.404;8.246;2023-02-26T05:17:46;339.90;;;64.97;;
19448;SDS011;9863;49.404;8.246;2023-02-26T05:20:13;332.77;;;62.10;;
19448;SDS011;9863;49.404;8.246;2023-02-26T05:22:40;362.60;;;72.43;;
19448;SDS011;9863;49.404;8.246;2023-02-26T05:25:08;346.13;;;67.23;;
19448;SDS011;9863;49.404;8.246;2023-02-26T05:27:39;327.50;;;60.57;;
19448;SDS011;9863;49.404;8.246;2023-02-26T05:30:12;348.00;;;67.90;;
19448;SDS011;9863;49.404;8.246;2023-02-26T05:32:41;358.83;;;69.20;;
19448;SDS011;9863;49.404;8.246;2023-02-26T05:35:08;341.90;;;65.40;;
19448;SDS011;9863;49.404;8.246;2023-02-26T05:37:36;354.83;;;72.03;;
19448;SDS011;9863;49.404;8.246;2023-02-26T05:40:04;381.97;;;76.97;;
19448;SDS011;9863;49.404;8.246;2023-02-26T05:42:36;347.57;;;67.37;;
19448;SDS011;9863;49.404;8.246;2023-02-26T05:45:05;362.63;;;71.93;;
19448;SDS011;9863;49.404;8.246;2023-02-26T05:47:33;350.30;;;69.23;;
19448;SDS011;9863;49.404;8.246;2023-02-26T05:50:01;343.10;;;65.73;;
19448;SDS011;9863;49.404;8.246;2023-02-26T05:52:29;337.17;;;64.57;;
19448;SDS011;9863;49.404;8.246;2023-02-26T05:54:57;322.20;;;60.00;;
19448;SDS011;9863;49.404;8.246;2023-02-26T05:57:24;368.60;;;73.50;;
19448;SDS011;9863;49.404;8.246;2023-02-26T05:59:51;381.17;;;79.47;;
19448;SDS011;9863;49.404;8.246;2023-02-26T06:02:19;346.37;;;67.97;;
19448;SDS011;9863;49.404;8.246;2023-02-26T06:04:47;326.33;;;59.67;;
19448;SDS011;9863;49.404;8.246;2023-02-26T06:07:14;396.73;;;83.00;;
19448;SDS011;9863;49.404;8.246;2023-02-26T06:09:41;319.67;;;59.97;;
19448;SDS011;9863;49.404;8.246;2023-02-26T06:12:08;347.20;;;70.37;;
19448;SDS011;9863;49.404;8.246;2023-02-26T06:14:35;331.80;;;64.13;;
19448;SDS011;9863;49.404;8.246;2023-02-26T06:17:03;354.97;;;70.23;;
19448;SDS011;9863;49.404;8.246;2023-02-26T06:19:36;351.77;;;68.87;;
19448;SDS011;9863;49.404;8.246;2023-02-26T06:22:03;307.13;;;57.07;;
19448;SDS011;9863;49.404;8.246;2023-02-26T06:24:31;370.10;;;76.83;;
19448;SDS011;9863;49.404;8.246;2023-02-26T06:27:03;324.87;;;60.80;;
19448;SDS011;9863;49.404;8.246;2023-02-26T06:29:30;356.47;;;99.47;;
19448;SDS011;9863;49.404;8.246;2023-02-26T06:31:57;326.60;;;62.07;;
19448;SDS011;9863;49.404;8.246;2023-02-26T06:34:24;386.97;;;79.93;;
19448;SDS011;9863;49.404;8.246;2023-02-26T06:36:51;339.27;;;62.73;;
19448;SDS011;9863;49.404;8.246;2023-02-26T06:39:18;309.33;;;55.60;;
19448;SDS011;9863;49.404;8.246;2023-02-26T06:41:45;332.60;;;72.20;;
19448;SDS011;9863;49.404;8.246;2023-02-26T06:44:12;364.50;;;76.10;;
19448;SDS011;9863;49.404;8.246;2023-02-26T06:46:39;331.97;;;61.87;;
19448;SDS011;9863;49.404;8.246;2023-02-26T06:49:06;329.87;;;59.90;;
19448;SDS011;9863;49.404;8.246;2023-02-26T06:51:33;358.10;;;75.87;;
19448;SDS011;9863;49.404;8.246;2023-02-26T06:54:01;389.67;;;87.30;;
19448;SDS011;9863;49.404;8.246;2023-02-26T06:56:29;370.53;;;77.53;;
19448;SDS011;9863;49.404;8.246;2023-02-26T06:58:56;345.00;;;67.63;;
19448;SDS011;9863;49.404;8.246;2023-02-26T07:01:23;357.00;;;86.90;;
19448;SDS011;9863;49.404;8.246;2023-02-26T07:03:52;332.30;;;64.50;;
19448;SDS011;9863;49.404;8.246;2023-02-26T07:06:19;322.50;;;61.13;;
19448;SDS011;9863;49.404;8.246;2023-02-26T07:08:53;351.27;;;104.13;;
19448;SDS011;9863;49.404;8.246;2023-02-26T07:11:21;377.93;;;118.93;;
19448;SDS011;9863;49.404;8.246;2023-02-26T07:13:49;342.20;;;93.13;;
19448;SDS011;9863;49.404;8.246;2023-02-26T07:16:17;348.63;;;117.23;;
19448;SDS011;9863;49.404;8.246;2023-02-26T07:18:44;374.00;;;105.80;;
19448;SDS011;9863;49.404;8.246;2023-02-26T07:21:11;389.87;;;116.93;;
19448;SDS011;9863;49.404;8.246;2023-02-26T07:23:38;341.20;;;114.00;;
19448;SDS011;9863;49.404;8.246;2023-02-26T07:26:05;346.17;;;103.37;;
19448;SDS011;9863;49.404;8.246;2023-02-26T07:28:34;384.93;;;117.27;;
19448;SDS011;9863;49.404;8.246;2023-02-26T07:31:01;362.67;;;152.07;;
19448;SDS011;9863;49.404;8.246;2023-02-26T07:33:28;333.77;;;74.93;;
19448;SDS011;9863;49.404;8.246;2023-02-26T07:35:57;338.70;;;66.43;;
19448;SDS011;9863;49.404;8.246;2023-02-26T07:38:24;380.07;;;82.37;;
19448;SDS011;9863;49.404;8.246;2023-02-26T07:40:53;365.70;;;181.20;;
19448;SDS011;9863;49.404;8.246;2023-02-26T07:43:24;338.13;;;94.40;;
19448;SDS011;9863;49.404;8.246;2023-02-26T07:45:51;343.57;;;65.57;;
19448;SDS011;9863;49.404;8.246;2023-02-26T07:48:19;349.20;;;76.87;;
19448;SDS011;9863;49.404;8.246;2023-02-26T07:50:46;350.20;;;112.23;;
19448;SDS011;9863;49.404;8.246;2023-02-26T07:53:17;337.70;;;73.13;;
19448;SDS011;9863;49.404;8.246;2023-02-26T07:55:44;397.70;;;93.93;;
19448;SDS011;9863;49.404;8.246;2023-02-26T07:58:12;349.07;;;85.83;;
19448;SDS011;9863;49.404;8.246;2023-02-26T08:00:39;371.60;;;88.47;;
19448;SDS011;9863;49.404;8.246;2023-02-26T08:03:21;382.70;;;78.67;;
19448;SDS011;9863;49.404;8.246;2023-02-26T08:05:48;344.23;;;100.80;;
19448;SDS011;9863;49.404;8.246;2023-02-26T08:08:15;352.30;;;70.73;;
19448;SDS011;9863;49.404;8.246;2023-02-26T08:10:42;388.10;;;243.70;;
19448;SDS011;9863;49.404;8.246;2023-02-26T08:13:09;364.87;;;73.70;;
19448;SDS011;9863;49.404;8.246;2023-02-26T08:15:37;303.60;;;59.80;;
19448;SDS011;9863;49.404;8.246;2023-02-26T08:18:05;331.97;;;65.20;;
19448;SDS011;9863;49.404;8.246;2023-02-26T08:20:32;352.53;;;74.10;;
19448;SDS011;9863;49.404;8.246;2023-02-26T08:22:59;343.90;;;73.77;;
19448;SDS011;9863;49.404;8.246;2023-02-26T08:25:27;340.57;;;71.07;;
19448;SDS011;9863;49.404;8.246;2023-02-26T08:27:54;343.60;;;70.97;;
19448;SDS011;9863;49.404;8.246;2023-02-26T08:30:26;388.90;;;87.53;;
19448;SDS011;9863;49.404;8.246;2023-02-26T08:32:53;349.37;;;73.83;;
19448;SDS011;9863;49.404;8.246;2023-02-26T08:35:21;323.87;;;65.83;;
19448;SDS011;9863;49.404;8.246;2023-02-26T08:37:50;337.17;;;70.93;;
19448;SDS011;9863;49.404;8.246;2023-02-26T08:40:18;374.00;;;79.60;;
19448;SDS011;9863;49.404;8.246;2023-02-26T08:42:45;337.43;;;89.57;;
19448;SDS011;9863;49.404;8.246;2023-02-26T08:45:12;336.83;;;69.63;;
19448;SDS011;9863;49.404;8.246;2023-02-26T08:47:39;364.43;;;96.83;;
19448;SDS011;9863;49.404;8.246;2023-02-26T08:50:22;364.03;;;107.67;;
19448;SDS011;9863;49.404;8.246;2023-02-26T08:52:51;365.80;;;102.03;;
19448;SDS011;9863;49.404;8.246;2023-02-26T08:55:19;402.90;;;108.57;;
19448;SDS011;9863;49.404;8.246;2023-02-26T08:57:56;361.13;;;119.97;;
19448;SDS011;9863;49.404;8.246;2023-02-26T09:00:23;341.50;;;106.67;;
19448;SDS011;9863;49.404;8.246;2023-02-26T09:02:50;416.50;;;158.90;;
19448;SDS011;9863;49.404;8.246;2023-02-26T09:05:18;385.80;;;112.80;;
19448;SDS011;9863;49.404;8.246;2023-02-26T09:07:45;355.03;;;96.20;;
19448;SDS011;9863;49.404;8.246;2023-02-26T09:10:13;366.27;;;160.00;;
19448;SDS011;9863;49.404;8.246;2023-02-26T09:12:40;365.30;;;110.90;;
19448;SDS011;9863;49.404;8.246;2023-02-26T09:15:08;381.83;;;121.10;;
19448;SDS011;9863;49.404;8.246;2023-02-26T09:17:37;376.50;;;90.60;;
19448;SDS011;9863;49.404;8.246;2023-02-26T09:20:06;360.43;;;91.90;;
19448;SDS011;9863;49.404;8.246;2023-02-26T09:22:35;382.93;;;93.23;;
19448;SDS011;9863;49.404;8.246;2023-02-26T09:25:03;341.97;;;80.30;;
19448;SDS011;9863;49.404;8.246;2023-02-26T09:27:32;377.53;;;105.20;;
19448;SDS011;9863;49.404;8.246;2023-02-26T09:30:02;374.07;;;103.70;;
19448;SDS011;9863;49.404;8.246;2023-02-26T09:32:30;347.10;;;79.13;;
19448;SDS011;9863;49.404;8.246;2023-02-26T09:34:58;433.73;;;121.57;;
19448;SDS011;9863;49.404;8.246;2023-02-26T09:37:25;355.73;;;89.53;;
19448;SDS011;9863;49.404;8.246;2023-02-26T09:39:52;455.07;;;131.80;;
19448;SDS011;9863;49.404;8.246;2023-02-26T09:42:29;373.90;;;100.63;;
19448;SDS011;9863;49.404;8.246;2023-02-26T09:45:15;388.80;;;96.27;;
19448;SDS011;9863;49.404;8.246;2023-02-26T09:47:55;374.77;;;87.27;;
19448;SDS011;9863;49.404;8.246;2023-02-26T09:50:33;353.03;;;84.97;;
19448;SDS011;9863;49.404;8.246;2023-02-26T09:53:31;356.07;;;89.60;;
19448;SDS011;9863;49.404;8.246;2023-02-26T09:56:26;415.90;;;116.67;;
19448;SDS011;9863;49.404;8.246;2023-02-26T09:59:14;348.97;;;91.20;;
19448;SDS011;9863;49.404;8.246;2023-02-26T10:01:44;417.00;;;132.43;;
19448;SDS011;9863;49.404;8.246;2023-02-26T10:04:47;362.03;;;91.47;;
19448;SDS011;9863;49.404;8.246;2023-02-26T10:07:35;380.53;;;123.23;;
19448;SDS011;9863;49.404;8.246;2023-02-26T10:10:28;377.00;;;102.27;;
19448;SDS011;9863;49.404;8.246;2023-02-26T10:16:24;351.93;;;103.13;;
19448;SDS011;9863;49.404;8.246;2023-02-26T10:19:02;394.77;;;113.17;;
19448;SDS011;9863;49.404;8.246;2023-02-26T10:21:35;363.77;;;111.50;;
19448;SDS011;9863;49.404;8.246;2023-02-26T10:24:37;431.43;;;129.53;;
19448;SDS011;9863;49.404;8.246;2023-02-26T10:27:14;376.63;;;100.30;;
19448;SDS011;9863;49.404;8.246;2023-02-26T10:29:55;408.90;;;108.30;;
19448;SDS011;9863;49.404;8.246;2023-02-26T10:35:05;408.03;;;201.67;;
19448;SDS011;9863;49.404;8.246;2023-02-26T10:43:17;414.03;;;236.37;;
19448;SDS011;9863;49.404;8.246;2023-02-26T10:52:23;421.83;;;119.10;;
19448;SDS011;9863;49.404;8.246;2023-02-26T10:57:30;368.80;;;96.73;;
19448;SDS011;9863;49.404;8.246;2023-02-26T11:00:04;401.93;;;153.40;;
19448;SDS011;9863;49.404;8.246;2023-02-26T11:02:37;398.33;;;112.27;;
19448;SDS011;9863;49.404;8.246;2023-02-26T11:05:14;370.50;;;89.73;;
19448;SDS011;9863;49.404;8.246;2023-02-26T11:07:51;398.87;;;121.83;;
19448;SDS011;9863;49.404;8.246;2023-02-26T11:10:24;362.93;;;114.83;;
19448;SDS011;9863;49.404;8.246;2023-02-26T11:13:04;386.40;;;97.43;;
19448;SDS011;9863;49.404;8.246;2023-02-26T11:15:31;368.83;;;123.80;;
19448;SDS011;9863;49.404;8.246;2023-02-26T11:17:58;389.07;;;187.60;;
19448;SDS011;9863;49.404;8.246;2023-02-26T11:23:16;369.83;;;112.13;;
19448;SDS011;9863;49.404;8.246;2023-02-26T11:25:51;385.33;;;128.23;;
19448;SDS011;9863;49.404;8.246;2023-02-26T11:28:44;381.23;;;151.17;;
19448;SDS011;9863;49.404;8.246;2023-02-26T11:31:16;366.67;;;94.00;;
19448;SDS011;9863;49.404;8.246;2023-02-26T11:33:50;391.13;;;94.33;;
19448;SDS011;9863;49.404;8.246;2023-02-26T11:36:39;348.77;;;97.73;;
19448;SDS011;9863;49.404;8.246;2023-02-26T11:39:29;394.23;;;151.00;;
19448;SDS011;9863;49.404;8.246;2023-02-26T11:42:02;377.03;;;151.40;;
19448;SDS011;9863;49.404;8.246;2023-02-26T11:44:37;386.47;;;142.93;;
19448;SDS011;9863;49.404;8.246;2023-02-26T11:47:10;377.83;;;156.93;;
19448;SDS011;9863;49.404;8.246;2023-02-26T11:49:42;400.40;;;184.40;;
19448;SDS011;9863;49.404;8.246;2023-02-26T11:52:26;414.93;;;165.57;;
19448;SDS011;9863;49.404;8.246;2023-02-26T11:54:59;391.27;;;105.87;;
19448;SDS011;9863;49.404;8.246;2023-02-26T11:57:31;344.90;;;102.23;;
19448;SDS011;9863;49.404;8.246;2023-02-26T11:59:59;386.13;;;111.80;;
19448;SDS011;9863;49.404;8.246;2023-02-26T12:02:46;369.57;;;128.77;;
19448;SDS011;9863;49.404;8.246;2023-02-26T12:05:15;402.87;;;159.80;;
19448;SDS011;9863;49.404;8.246;2023-02-26T12:07:43;383.50;;;137.80;;
19448;SDS011;9863;49.404;8.246;2023-02-26T12:10:14;425.37;;;189.97;;
19448;SDS011;9863;49.404;8.246;2023-02-26T12:19:02;357.20;;;103.33;;
19448;SDS011;9863;49.404;8.246;2023-02-26T12:25:00;424.97;;;129.57;;
19448;SDS011;9863;49.404;8.246;2023-02-26T12:28:02;381.10;;;108.17;;
19448;SDS011;9863;49.404;8.246;2023-02-26T12:40:37;344.03;;;89.77;;
19448;SDS011;9863;49.404;8.246;2023-02-26T12:43:29;394.47;;;105.37;;
19448;SDS011;9863;49.404;8.246;2023-02-26T12:46:18;372.83;;;110.07;;
19448;SDS011;9863;49.404;8.246;2023-02-26T12:49:14;340.30;;;102.43;;
19448;SDS011;9863;49.404;8.246;2023-02-26T12:55:13;403.90;;;140.47;;
19448;SDS011;9863;49.404;8.246;2023-02-26T13:03:42;368.67;;;124.53;;
19448;SDS011;9863;49.404;8.246;2023-02-26T13:15:39;367.70;;;104.63;;
19448;SDS011;9863;49.404;8.246;2023-02-26T13:21:01;405.00;;;135.73;;
19448;SDS011;9863;49.404;8.246;2023-02-26T13:23:39;402.87;;;135.90;;
19448;SDS011;9863;49.404;8.246;2023-02-26T13:26:44;360.80;;;102.33;;
19448;SDS011;9863;49.404;8.246;2023-02-26T13:29:31;371.30;;;124.30;;
19448;SDS011;9863;49.404;8.246;2023-02-26T13:32:42;348.90;;;96.60;;
19448;SDS011;9863;49.404;8.246;2023-02-26T13:35:21;395.87;;;190.80;;
19448;SDS011;9863;49.404;8.246;2023-02-26T13:37:56;375.07;;;104.93;;
19448;SDS011;9863;49.404;8.246;2023-02-26T13:51:55;368.47;;;115.33;;
19448;SDS011;9863;49.404;8.246;2023-02-26T14:00:06;393.07;;;140.40;;
19448;SDS011;9863;49.404;8.246;2023-02-26T14:02:55;356.23;;;104.80;;
19448;SDS011;9863;49.404;8.246;2023-02-26T14:11:01;375.97;;;137.33;;
19448;SDS011;9863;49.404;8.246;2023-02-26T14:13:34;398.67;;;136.53;;
19448;SDS011;9863;49.404;8.246;2023-02-26T14:16:10;375.27;;;121.50;;
19448;SDS011;9863;49.404;8.246;2023-02-26T14:24:28;387.43;;;100.30;;
19448;SDS011;9863;49.404;8.246;2023-02-26T14:32:29;366.33;;;107.97;;
19448;SDS011;9863;49.404;8.246;2023-02-26T14:35:13;384.67;;;106.40;;
19448;SDS011;9863;49.404;8.246;2023-02-26T14:37:55;363.13;;;104.77;;
19448;SDS011;9863;49.404;8.246;2023-02-26T14:40:29;382.23;;;96.10;;
19448;SDS011;9863;49.404;8.246;2023-02-26T14:43:04;357.07;;;87.57;;
19448;SDS011;9863;49.404;8.246;2023-02-26T14:45:36;357.33;;;88.00;;
19448;SDS011;9863;49.404;8.246;2023-02-26T14:48:07;418.23;;;107.90;;
19448;SDS011;9863;49.404;8.246;2023-02-26T15:00:02;371.43;;;99.23;;
19448;SDS011;9863;49.404;8.246;2023-02-26T15:12:01;375.33;;;96.20;;
19448;SDS011;9863;49.404;8.246;2023-02-26T15:17:21;355.83;;;92.17;;
19448;SDS011;9863;49.404;8.246;2023-02-26T15:26:00;403.47;;;110.50;;
19448;SDS011;9863;49.404;8.246;2023-02-26T15:28:35;375.57;;;101.23;;
19448;SDS011;9863;49.404;8.246;2023-02-26T15:31:06;426.57;;;120.57;;
19448;SDS011;9863;49.404;8.246;2023-02-26T15:33:38;398.93;;;130.40;;
19448;SDS011;9863;49.404;8.246;2023-02-26T15:36:08;394.60;;;113.43;;
19448;SDS011;9863;49.404;8.246;2023-02-26T15:38:45;367.53;;;140.60;;
19448;SDS011;9863;49.404;8.246;2023-02-26T15:41:21;444.00;;;138.57;;
19448;SDS011;9863;49.404;8.246;2023-02-26T15:43:56;386.93;;;108.23;;
19448;SDS011;9863;49.404;8.246;2023-02-26T15:46:29;369.27;;;90.80;;
19448;SDS011;9863;49.404;8.246;2023-02-26T15:49:01;387.07;;;99.70;;
19448;SDS011;9863;49.404;8.246;2023-02-26T15:52:03;388.77;;;113.77;;
19448;SDS011;9863;49.404;8.246;2023-02-26T15:54:34;405.67;;;137.17;;
19448;SDS011;9863;49.404;8.246;2023-02-26T15:57:12;350.13;;;87.03;;
19448;SDS011;9863;49.404;8.246;2023-02-26T15:59:42;415.33;;;124.53;;
19448;SDS011;9863;49.404;8.246;2023-02-26T16:02:19;389.13;;;197.90;;
19448;SDS011;9863;49.404;8.246;2023-02-26T16:04:58;422.83;;;182.87;;
19448;SDS011;9863;49.404;8.246;2023-02-26T16:07:28;382.77;;;144.63;;
19448;SDS011;9863;49.404;8.246;2023-02-26T16:10:02;372.13;;;95.80;;
19448;SDS011;9863;49.404;8.246;2023-02-26T16:12:37;370.13;;;116.80;;
19448;SDS011;9863;49.404;8.246;2023-02-26T16:15:13;405.00;;;169.60;;
19448;SDS011;9863;49.404;8.246;2023-02-26T16:17:48;361.80;;;124.97;;
19448;SDS011;9863;49.404;8.246;2023-02-26T16:20:19;415.20;;;160.07;;
19448;SDS011;9863;49.404;8.246;2023-02-26T16:22:57;387.47;;;143.37;;
19448;SDS011;9863;49.404;8.246;2023-02-26T16:28:05;413.50;;;169.13;;
19448;SDS011;9863;49.404;8.246;2023-02-26T16:30:41;385.70;;;123.33;;
19448;SDS011;9863;49.404;8.246;2023-02-26T16:33:14;419.00;;;134.60;;
19448;SDS011;9863;49.404;8.246;2023-02-26T16:35:47;358.43;;;103.60;;
19448;SDS011;9863;49.404;8.246;2023-02-26T16:38:31;320.83;;;74.63;;
19448;SDS011;9863;49.404;8.246;2023-02-26T16:41:11;340.73;;;79.77;;
19448;SDS011;9863;49.404;8.246;2023-02-26T16:51:52;326.97;;;78.90;;
19448;SDS011;9863;49.404;8.246;2023-02-26T16:56:58;326.77;;;75.70;;
19448;SDS011;9863;49.404;8.246;2023-02-26T16:59:52;328.07;;;75.03;;
19448;SDS011;9863;49.404;8.246;2023-02-26T17:02:28;334.23;;;79.40;;
19448;SDS011;9863;49.404;8.246;2023-02-26T17:05:01;329.50;;;81.47;;
19448;SDS011;9863;49.404;8.246;2023-02-26T17:07:51;323.67;;;77.93;;
19448;SDS011;9863;49.404;8.246;2023-02-26T17:10:43;316.50;;;73.03;;
19448;SDS011;9863;49.404;8.246;2023-02-26T17:16:14;341.17;;;79.00;;
19448;SDS011;9863;49.404;8.246;2023-02-26T17:18:41;330.87;;;72.77;;
19448;SDS011;9863;49.404;8.246;2023-02-26T17:21:08;346.13;;;81.07;;
19448;SDS011;9863;49.404;8.246;2023-02-26T17:23:37;332.47;;;74.47;;
19448;SDS011;9863;49.404;8.246;2023-02-26T17:26:04;355.53;;;82.27;;
19448;SDS011;9863;49.404;8.246;2023-02-26T17:28:33;332.73;;;75.93;;
19448;SDS011;9863;49.404;8.246;2023-02-26T17:31:06;338.87;;;80.23;;
19448;SDS011;9863;49.404;8.246;2023-02-26T17:33:33;332.87;;;73.83;;
19448;SDS011;9863;49.404;8.246;2023-02-26T17:36:02;339.40;;;76.83;;
19448;SDS011;9863;49.404;8.246;2023-02-26T17:38:30;341.80;;;78.13;;
19448;SDS011;9863;49.404;8.246;2023-02-26T17:40:58;330.77;;;72.77;;
19448;SDS011;9863;49.404;8.246;2023-02-26T17:43:28;321.67;;;70.23;;
19448;SDS011;9863;49.404;8.246;2023-02-26T17:45:55;333.47;;;74.10;;
19448;SDS011;9863;49.404;8.246;2023-02-26T17:48:23;332.77;;;74.80;;
19448;SDS011;9863;49.404;8.246;2023-02-26T17:50:55;350.57;;;81.53;;
19448;SDS011;9863;49.404;8.246;2023-02-26T17:53:23;342.43;;;75.40;;
19448;SDS011;9863;49.404;8.246;2023-02-26T17:55:59;344.57;;;77.97;;
19448;SDS011;9863;49.404;8.246;2023-02-26T17:58:27;324.97;;;72.73;;